sensor_id;sensor_type;location;lat;lon;timestamp;temperature;humidity
25192;DHT22;13143;50.924;5.320;2023-05-07T00:00:14;18.20;99.90
25192;DHT22;13143;50.924;5.320;2023-05-07T00:02:44;18.20;99.90
25192;DHT22;13143;50.924;5.320;2023-05-07T00:05:11;18.20;99.90
25192;DHT22;13143;50.924;5.320;2023-05-07T00:07:38;18.20;99.90
25192;DHT22;13143;50.924;5.320;2023-05-07T00:10:08;18.20;99.90
25192;DHT22;13143;50.924;5.320;2023-05-07T00:12:35;18.10;99.90
25192;DHT22;13143;50.924;5.320;2023-05-07T00:15:04;18.10;99.90
25192;DHT22;13143;50.924;5.320;2023-05-07T00:17:32;18.10;99.90
25192;DHT22;13143;50.924;5.320;2023-05-07T00:19:59;18.10;99.90
25192;DHT22;13143;50.924;5.320;2023-05-07T00:22:25;18.10;99.90
25192;DHT22;13143;50.924;5.320;2023-05-07T00:24:51;18.10;99.90
25192;DHT22;13143;50.924;5.320;2023-05-07T00:27:17;18.00;99.90
25192;DHT22;13143;50.924;5.320;2023-05-07T00:29:47;18.00;99.90
25192;DHT22;13143;50.924;5.320;2023-05-07T00:32:16;18.00;99.90
25192;DHT22;13143;50.924;5.320;2023-05-07T00:34:43;18.00;99.90
25192;DHT22;13143;50.924;5.320;2023-05-07T00:37:12;18.00;99.90
25192;DHT22;13143;50.924;5.320;2023-05-07T00:39:39;18.00;99.90
25192;DHT22;13143;50.924;5.320;2023-05-07T00:42:05;18.00;99.90
25192;DHT22;13143;50.924;5.320;2023-05-07T00:44:34;18.00;99.90
25192;DHT22;13143;50.924;5.320;2023-05-07T00:47:08;17.90;99.90
25192;DHT22;13143;50.924;5.320;2023-05-07T00:49:52;17.90;99.90
25192;DHT22;13143;50.924;5.320;2023-05-07T00:52:20;17.90;99.90
25192;DHT22;13143;50.924;5.320;2023-05-07T00:54:48;17.90;99.90
25192;DHT22;13143;50.924;5.320;2023-05-07T00:57:21;17.90;99.90
25192;DHT22;13143;50.924;5.320;2023-05-07T00:59:53;17.90;99.90
25192;DHT22;13143;50.924;5.320;2023-05-07T01:02:20;17.90;99.90
25192;DHT22;13143;50.924;5.320;2023-05-07T01:04:49;17.90;99.90
25192;DHT22;13143;50.924;5.320;2023-05-07T01:07:28;17.90;99.90
25192;DHT22;13143;50.924;5.320;2023-05-07T01:10:00;17.90;99.90
25192;DHT22;13143;50.924;5.320;2023-05-07T01:12:31;17.90;99.90
25192;DHT22;13143;50.924;5.320;2023-05-07T01:14:57;17.80;99.90
25192;DHT22;13143;50.924;5.320;2023-05-07T01:17:24;17.80;99.90
25192;DHT22;13143;50.924;5.320;2023-05-07T01:19:50;17.80;99.90
25192;DHT22;13143;50.924;5.320;2023-05-07T01:22:45;17.80;99.90
25192;DHT22;13143;50.924;5.320;2023-05-07T01:25:11;17.80;99.90
25192;DHT22;13143;50.924;5.320;2023-05-07T01:27:39;17.80;99.90
25192;DHT22;13143;50.924;5.320;2023-05-07T01:30:14;17.70;99.90
25192;DHT22;13143;50.924;5.320;2023-05-07T01:33:08;17.80;99.90
25192;DHT22;13143;50.924;5.320;2023-05-07T01:35:38;17.70;99.90
25192;DHT22;13143;50.924;5.320;2023-05-07T01:38:05;17.70;99.90
25192;DHT22;13143;50.924;5.320;2023-05-07T01:40:33;17.70;99.90
25192;DHT22;13143;50.924;5.320;2023-05-07T01:43:15;17.70;99.90
25192;DHT22;13143;50.924;5.320;2023-05-07T01:45:48;17.70;99.90
25192;DHT22;13143;50.924;5.320;2023-05-07T01:48:15;17.60;99.90
25192;DHT22;13143;50.924;5.320;2023-05-07T01:50:43;17.60;99.90
25192;DHT22;13143;50.924;5.320;2023-05-07T01:53:22;17.60;99.90
25192;DHT22;13143;50.924;5.320;2023-05-07T01:55:54;17.60;99.90
25192;DHT22;13143;50.924;5.320;2023-05-07T01:58:29;17.60;99.90
25192;DHT22;13143;50.924;5.320;2023-05-07T02:01:06;17.60;99.90
25192;DHT22;13143;50.924;5.320;2023-05-07T02:03:38;17.60;99.90
25192;DHT22;13143;50.924;5.320;2023-05-07T02:06:08;17.50;99.90
25192;DHT22;13143;50.924;5.320;2023-05-07T02:08:37;17.50;99.90
25192;DHT22;13143;50.924;5.320;2023-05-07T02:11:06;17.50;99.90
25192;DHT22;13143;50.924;5.320;2023-05-07T02:13:33;17.50;99.90
25192;DHT22;13143;50.924;5.320;2023-05-07T02:16:01;17.50;99.90
25192;DHT22;13143;50.924;5.320;2023-05-07T02:18:27;17.40;99.90
25192;DHT22;13143;50.924;5.320;2023-05-07T02:21:15;17.50;99.90
25192;DHT22;13143;50.924;5.320;2023-05-07T02:23:40;17.40;99.90
25192;DHT22;13143;50.924;5.320;2023-05-07T02:26:24;17.40;99.90
25192;DHT22;13143;50.924;5.320;2023-05-07T02:28:55;17.40;99.90
25192;DHT22;13143;50.924;5.320;2023-05-07T02:31:33;17.40;99.90
25192;DHT22;13143;50.924;5.320;2023-05-07T02:34:02;17.40;99.90
25192;DHT22;13143;50.924;5.320;2023-05-07T02:36:48;17.40;99.90
25192;DHT22;13143;50.924;5.320;2023-05-07T02:39:18;17.40;99.90
25192;DHT22;13143;50.924;5.320;2023-05-07T02:41:47;17.40;99.90
25192;DHT22;13143;50.924;5.320;2023-05-07T02:44:16;17.40;99.90
25192;DHT22;13143;50.924;5.320;2023-05-07T02:46:50;17.40;99.90
25192;DHT22;13143;50.924;5.320;2023-05-07T02:49:16;17.30;99.90
25192;DHT22;13143;50.924;5.320;2023-05-07T02:51:42;17.30;99.90
25192;DHT22;13143;50.924;5.320;2023-05-07T02:54:08;17.40;99.90
25192;DHT22;13143;50.924;5.320;2023-05-07T02:56:35;17.30;99.90
25192;DHT22;13143;50.924;5.320;2023-05-07T02:59:01;17.30;99.90
25192;DHT22;13143;50.924;5.320;2023-05-07T03:01:36;17.30;99.90
25192;DHT22;13143;50.924;5.320;2023-05-07T03:04:09;17.30;99.90
25192;DHT22;13143;50.924;5.320;2023-05-07T03:06:39;17.30;99.90
25192;DHT22;13143;50.924;5.320;2023-05-07T03:09:29;17.30;99.90
25192;DHT22;13143;50.924;5.320;2023-05-07T03:12:05;17.30;99.90
25192;DHT22;13143;50.924;5.320;2023-05-07T03:14:38;17.30;99.90
25192;DHT22;13143;50.924;5.320;2023-05-07T03:17:10;17.30;99.90
25192;DHT22;13143;50.924;5.320;2023-05-07T03:19:39;17.30;99.90
25192;DHT22;13143;50.924;5.320;2023-05-07T03:22:08;17.20;99.90
25192;DHT22;13143;50.924;5.320;2023-05-07T03:24:37;17.20;99.90
25192;DHT22;13143;50.924;5.320;2023-05-07T03:27:04;17.20;99.90
25192;DHT22;13143;50.924;5.320;2023-05-07T03:29:30;17.20;99.90
25192;DHT22;13143;50.924;5.320;2023-05-07T03:31:57;17.20;99.90
25192;DHT22;13143;50.924;5.320;2023-05-07T03:34:23;17.20;99.90
25192;DHT22;13143;50.924;5.320;2023-05-07T03:36:49;17.20;99.90
25192;DHT22;13143;50.924;5.320;2023-05-07T03:39:19;17.10;99.90
25192;DHT22;13143;50.924;5.320;2023-05-07T03:42:05;17.10;99.90
25192;DHT22;13143;50.924;5.320;2023-05-07T03:44:32;17.20;99.90
25192;DHT22;13143;50.924;5.320;2023-05-07T03:47:16;17.20;99.90
25192;DHT22;13143;50.924;5.320;2023-05-07T03:49:45;17.10;99.90
25192;DHT22;13143;50.924;5.320;2023-05-07T03:52:16;17.10;99.90
25192;DHT22;13143;50.924;5.320;2023-05-07T03:54:48;17.10;99.90
25192;DHT22;13143;50.924;5.320;2023-05-07T03:57:28;17.10;99.90
25192;DHT22;13143;50.924;5.320;2023-05-07T04:00:00;17.10;99.90
25192;DHT22;13143;50.924;5.320;2023-05-07T04:02:35;17.10;99.90
25192;DHT22;13143;50.924;5.320;2023-05-07T04:05:13;17.10;99.90
25192;DHT22;13143;50.924;5.320;2023-05-07T04:07:42;17.10;99.90
25192;DHT22;13143;50.924;5.320;2023-05-07T04:10:09;17.10;99.90
25192;DHT22;13143;50.924;5.320;2023-05-07T04:12:36;17.10;99.90
25192;DHT22;13143;50.924;5.320;2023-05-07T04:15:02;17.10;99.90
25192;DHT22;13143;50.924;5.320;2023-05-07T04:17:28;17.10;99.90
25192;DHT22;13143;50.924;5.320;2023-05-07T04:19:55;17.10;99.90
25192;DHT22;13143;50.924;5.320;2023-05-07T04:22:24;17.10;99.90
25192;DHT22;13143;50.924;5.320;2023-05-07T04:25:11;17.00;99.90
25192;DHT22;13143;50.924;5.320;2023-05-07T04:27:40;17.10;99.90
25192;DHT22;13143;50.924;5.320;2023-05-07T04:30:13;17.10;99.90
25192;DHT22;13143;50.924;5.320;2023-05-07T04:32:42;17.00;99.90
25192;DHT22;13143;50.924;5.320;2023-05-07T04:35:19;17.10;99.90
25192;DHT22;13143;50.924;5.320;2023-05-07T04:38:01;17.10;99.90
25192;DHT22;13143;50.924;5.320;2023-05-07T04:40:54;17.00;99.90
25192;DHT22;13143;50.924;5.320;2023-05-07T04:43:22;17.00;99.90
25192;DHT22;13143;50.924;5.320;2023-05-07T04:46:00;17.00;99.90
25192;DHT22;13143;50.924;5.320;2023-05-07T04:48:44;17.00;99.90
25192;DHT22;13143;50.924;5.320;2023-05-07T04:51:14;17.00;99.90
25192;DHT22;13143;50.924;5.320;2023-05-07T04:53:47;17.00;99.90
25192;DHT22;13143;50.924;5.320;2023-05-07T04:56:14;17.00;99.90
25192;DHT22;13143;50.924;5.320;2023-05-07T04:58:46;17.00;99.90
25192;DHT22;13143;50.924;5.320;2023-05-07T05:01:23;17.00;99.90
25192;DHT22;13143;50.924;5.320;2023-05-07T05:04:13;17.00;99.90
25192;DHT22;13143;50.924;5.320;2023-05-07T05:06:42;17.00;99.90
25192;DHT22;13143;50.924;5.320;2023-05-07T05:09:12;17.00;99.90
25192;DHT22;13143;50.924;5.320;2023-05-07T05:11:39;17.00;99.90
25192;DHT22;13143;50.924;5.320;2023-05-07T05:14:05;17.00;99.90
25192;DHT22;13143;50.924;5.320;2023-05-07T05:16:35;17.00;99.90
25192;DHT22;13143;50.924;5.320;2023-05-07T05:19:02;17.00;99.90
25192;DHT22;13143;50.924;5.320;2023-05-07T05:21:28;17.00;99.90
25192;DHT22;13143;50.924;5.320;2023-05-07T05:23:55;17.00;99.90
25192;DHT22;13143;50.924;5.320;2023-05-07T05:26:25;17.00;99.90
25192;DHT22;13143;50.924;5.320;2023-05-07T05:29:03;17.00;99.90
25192;DHT22;13143;50.924;5.320;2023-05-07T05:31:47;17.00;99.90
25192;DHT22;13143;50.924;5.320;2023-05-07T05:34:16;17.00;99.90
25192;DHT22;13143;50.924;5.320;2023-05-07T05:36:46;17.00;99.90
25192;DHT22;13143;50.924;5.320;2023-05-07T05:39:24;17.00;99.90
25192;DHT22;13143;50.924;5.320;2023-05-07T05:41:56;17.00;99.90
25192;DHT22;13143;50.924;5.320;2023-05-07T05:44:28;17.00;99.90
25192;DHT22;13143;50.924;5.320;2023-05-07T05:46:54;17.10;99.90
25192;DHT22;13143;50.924;5.320;2023-05-07T05:49:27;17.00;99.90
25192;DHT22;13143;50.924;5.320;2023-05-07T05:51:53;17.10;99.90
25192;DHT22;13143;50.924;5.320;2023-05-07T05:54:19;17.00;99.90
25192;DHT22;13143;50.924;5.320;2023-05-07T05:56:46;17.00;99.90
25192;DHT22;13143;50.924;5.320;2023-05-07T05:59:12;17.00;99.90
25192;DHT22;13143;50.924;5.320;2023-05-07T06:01:39;17.10;99.90
25192;DHT22;13143;50.924;5.320;2023-05-07T06:04:08;17.00;99.90
25192;DHT22;13143;50.924;5.320;2023-05-07T06:06:40;17.10;99.90
25192;DHT22;13143;50.924;5.320;2023-05-07T06:09:06;17.10;99.90
25192;DHT22;13143;50.924;5.320;2023-05-07T06:11:33;17.10;99.90
25192;DHT22;13143;50.924;5.320;2023-05-07T06:13:59;17.10;99.90
25192;DHT22;13143;50.924;5.320;2023-05-07T06:16:26;17.10;99.90
25192;DHT22;13143;50.924;5.320;2023-05-07T06:18:52;17.10;99.90
25192;DHT22;13143;50.924;5.320;2023-05-07T06:21:18;17.10;99.90
25192;DHT22;13143;50.924;5.320;2023-05-07T06:23:44;17.20;99.90
25192;DHT22;13143;50.924;5.320;2023-05-07T06:26:14;17.20;99.90
25192;DHT22;13143;50.924;5.320;2023-05-07T06:28:43;17.20;99.90
25192;DHT22;13143;50.924;5.320;2023-05-07T06:31:19;17.20;99.90
25192;DHT22;13143;50.924;5.320;2023-05-07T06:33:49;17.20;99.90
25192;DHT22;13143;50.924;5.320;2023-05-07T06:36:15;17.30;99.90
25192;DHT22;13143;50.924;5.320;2023-05-07T06:38:42;17.30;99.90
25192;DHT22;13143;50.924;5.320;2023-05-07T06:41:09;17.30;99.90
25192;DHT22;13143;50.924;5.320;2023-05-07T06:43:35;17.30;99.90
25192;DHT22;13143;50.924;5.320;2023-05-07T06:46:02;17.30;99.90
25192;DHT22;13143;50.924;5.320;2023-05-07T06:48:28;17.40;99.90
25192;DHT22;13143;50.924;5.320;2023-05-07T06:50:58;17.40;99.90
25192;DHT22;13143;50.924;5.320;2023-05-07T06:53:24;17.40;99.90
25192;DHT22;13143;50.924;5.320;2023-05-07T06:55:51;17.40;99.90
25192;DHT22;13143;50.924;5.320;2023-05-07T06:58:18;17.40;99.90
25192;DHT22;13143;50.924;5.320;2023-05-07T07:00:44;17.50;99.90
25192;DHT22;13143;50.924;5.320;2023-05-07T07:03:11;17.50;99.90
25192;DHT22;13143;50.924;5.320;2023-05-07T07:05:41;17.50;99.90
25192;DHT22;13143;50.924;5.320;2023-05-07T07:08:10;17.50;99.90
25192;DHT22;13143;50.924;5.320;2023-05-07T07:10:40;17.50;99.90
25192;DHT22;13143;50.924;5.320;2023-05-07T07:13:06;17.50;99.90
25192;DHT22;13143;50.924;5.320;2023-05-07T07:15:41;17.60;99.90
25192;DHT22;13143;50.924;5.320;2023-05-07T07:18:09;17.60;99.90
25192;DHT22;13143;50.924;5.320;2023-05-07T07:20:38;17.60;99.90
25192;DHT22;13143;50.924;5.320;2023-05-07T07:23:04;17.60;99.90
25192;DHT22;13143;50.924;5.320;2023-05-07T07:25:34;17.60;99.90
25192;DHT22;13143;50.924;5.320;2023-05-07T07:28:00;17.60;99.90
25192;DHT22;13143;50.924;5.320;2023-05-07T07:30:26;17.70;99.90
25192;DHT22;13143;50.924;5.320;2023-05-07T07:32:53;17.70;99.90
25192;DHT22;13143;50.924;5.320;2023-05-07T07:35:42;17.70;99.90
25192;DHT22;13143;50.924;5.320;2023-05-07T07:38:14;17.70;99.90
25192;DHT22;13143;50.924;5.320;2023-05-07T07:40:48;17.80;99.90
25192;DHT22;13143;50.924;5.320;2023-05-07T07:43:18;17.80;99.90
25192;DHT22;13143;50.924;5.320;2023-05-07T07:45:47;17.80;99.90
25192;DHT22;13143;50.924;5.320;2023-05-07T07:48:20;17.80;99.90
25192;DHT22;13143;50.924;5.320;2023-05-07T07:50:49;17.80;99.90
25192;DHT22;13143;50.924;5.320;2023-05-07T07:53:17;17.90;99.90
25192;DHT22;13143;50.924;5.320;2023-05-07T07:55:47;17.90;99.90
25192;DHT22;13143;50.924;5.320;2023-05-07T07:58:13;17.90;99.90
25192;DHT22;13143;50.924;5.320;2023-05-07T08:00:40;17.90;99.90
25192;DHT22;13143;50.924;5.320;2023-05-07T08:03:08;17.90;99.90
25192;DHT22;13143;50.924;5.320;2023-05-07T08:05:35;17.90;99.90
25192;DHT22;13143;50.924;5.320;2023-05-07T08:08:06;18.00;99.90
25192;DHT22;13143;50.924;5.320;2023-05-07T08:10:33;18.00;99.90
25192;DHT22;13143;50.924;5.320;2023-05-07T08:13:07;18.00;99.90
25192;DHT22;13143;50.924;5.320;2023-05-07T08:15:33;18.00;99.90
25192;DHT22;13143;50.924;5.320;2023-05-07T08:18:00;18.00;99.90
25192;DHT22;13143;50.924;5.320;2023-05-07T08:20:27;18.10;99.90
25192;DHT22;13143;50.924;5.320;2023-05-07T08:22:54;18.10;99.90
25192;DHT22;13143;50.924;5.320;2023-05-07T08:25:20;18.10;99.90
25192;DHT22;13143;50.924;5.320;2023-05-07T08:27:46;18.10;99.90
25192;DHT22;13143;50.924;5.320;2023-05-07T08:30:40;18.20;99.90
25192;DHT22;13143;50.924;5.320;2023-05-07T08:33:06;18.20;99.90
25192;DHT22;13143;50.924;5.320;2023-05-07T08:35:34;18.20;99.90
25192;DHT22;13143;50.924;5.320;2023-05-07T08:38:04;18.20;99.90
25192;DHT22;13143;50.924;5.320;2023-05-07T08:40:39;18.30;99.90
25192;DHT22;13143;50.924;5.320;2023-05-07T08:43:26;18.30;99.90
25192;DHT22;13143;50.924;5.320;2023-05-07T08:46:02;18.30;99.90
25192;DHT22;13143;50.924;5.320;2023-05-07T08:48:39;18.40;99.90
25192;DHT22;13143;50.924;5.320;2023-05-07T08:51:19;18.40;99.90
25192;DHT22;13143;50.924;5.320;2023-05-07T08:54:15;18.40;99.90
25192;DHT22;13143;50.924;5.320;2023-05-07T08:56:42;18.40;99.90
25192;DHT22;13143;50.924;5.320;2023-05-07T08:59:08;18.50;99.90
25192;DHT22;13143;50.924;5.320;2023-05-07T09:01:44;18.50;99.90
25192;DHT22;13143;50.924;5.320;2023-05-07T09:04:16;18.50;99.90
25192;DHT22;13143;50.924;5.320;2023-05-07T09:06:49;18.50;99.90
25192;DHT22;13143;50.924;5.320;2023-05-07T09:09:21;18.60;99.90
25192;DHT22;13143;50.924;5.320;2023-05-07T09:11:57;18.60;99.90
25192;DHT22;13143;50.924;5.320;2023-05-07T09:14:28;18.70;99.90
25192;DHT22;13143;50.924;5.320;2023-05-07T09:17:03;18.70;99.90
25192;DHT22;13143;50.924;5.320;2023-05-07T09:19:45;18.70;99.90
25192;DHT22;13143;50.924;5.320;2023-05-07T09:22:14;18.80;99.90
25192;DHT22;13143;50.924;5.320;2023-05-07T09:24:48;18.80;99.90
25192;DHT22;13143;50.924;5.320;2023-05-07T09:27:14;18.90;99.90
25192;DHT22;13143;50.924;5.320;2023-05-07T09:29:41;18.90;99.90
25192;DHT22;13143;50.924;5.320;2023-05-07T09:32:09;18.90;99.90
25192;DHT22;13143;50.924;5.320;2023-05-07T09:34:35;18.90;99.90
25192;DHT22;13143;50.924;5.320;2023-05-07T09:37:02;19.00;99.90
25192;DHT22;13143;50.924;5.320;2023-05-07T09:39:43;19.00;99.90
25192;DHT22;13143;50.924;5.320;2023-05-07T09:42:10;19.00;99.90
25192;DHT22;13143;50.924;5.320;2023-05-07T09:44:40;19.10;99.90
25192;DHT22;13143;50.924;5.320;2023-05-07T09:47:19;19.10;99.90
25192;DHT22;13143;50.924;5.320;2023-05-07T09:49:50;19.10;99.90
25192;DHT22;13143;50.924;5.320;2023-05-07T09:52:34;19.20;99.90
25192;DHT22;13143;50.924;5.320;2023-05-07T09:55:02;19.20;99.90
25192;DHT22;13143;50.924;5.320;2023-05-07T09:57:45;19.20;99.90
25192;DHT22;13143;50.924;5.320;2023-05-07T10:00:39;19.30;99.90
25192;DHT22;13143;50.924;5.320;2023-05-07T10:03:06;19.30;99.90
25192;DHT22;13143;50.924;5.320;2023-05-07T10:05:40;19.30;99.90
25192;DHT22;13143;50.924;5.320;2023-05-07T10:08:15;19.30;99.90
25192;DHT22;13143;50.924;5.320;2023-05-07T10:10:42;19.40;99.90
25192;DHT22;13143;50.924;5.320;2023-05-07T10:13:13;19.30;99.90
25192;DHT22;13143;50.924;5.320;2023-05-07T10:15:39;19.40;99.90
25192;DHT22;13143;50.924;5.320;2023-05-07T10:18:12;19.40;99.90
25192;DHT22;13143;50.924;5.320;2023-05-07T10:20:41;19.40;99.90
25192;DHT22;13143;50.924;5.320;2023-05-07T10:23:12;19.50;99.90
25192;DHT22;13143;50.924;5.320;2023-05-07T10:25:39;19.50;99.90
25192;DHT22;13143;50.924;5.320;2023-05-07T10:28:07;19.50;99.90
25192;DHT22;13143;50.924;5.320;2023-05-07T10:33:09;19.50;99.90
25192;DHT22;13143;50.924;5.320;2023-05-07T10:35:43;19.50;99.90
25192;DHT22;13143;50.924;5.320;2023-05-07T10:38:10;19.50;99.90
25192;DHT22;13143;50.924;5.320;2023-05-07T10:40:58;19.50;99.90
25192;DHT22;13143;50.924;5.320;2023-05-07T10:43:37;19.60;99.90
25192;DHT22;13143;50.924;5.320;2023-05-07T10:46:17;19.60;99.90
25192;DHT22;13143;50.924;5.320;2023-05-07T10:51:33;19.60;99.90
25192;DHT22;13143;50.924;5.320;2023-05-07T10:56:42;19.60;99.90
25192;DHT22;13143;50.924;5.320;2023-05-07T11:02:03;19.60;99.90
25192;DHT22;13143;50.924;5.320;2023-05-07T11:04:30;19.60;99.90
25192;DHT22;13143;50.924;5.320;2023-05-07T11:15:10;19.70;99.90
25192;DHT22;13143;50.924;5.320;2023-05-07T11:17:53;19.70;99.90
25192;DHT22;13143;50.924;5.320;2023-05-07T11:20:19;19.70;99.90
25192;DHT22;13143;50.924;5.320;2023-05-07T11:22:47;19.70;99.90
25192;DHT22;13143;50.924;5.320;2023-05-07T11:25:19;19.70;99.90
25192;DHT22;13143;50.924;5.320;2023-05-07T11:27:49;19.70;99.90
25192;DHT22;13143;50.924;5.320;2023-05-07T11:30:24;19.60;99.90
25192;DHT22;13143;50.924;5.320;2023-05-07T11:32:59;19.60;99.90
25192;DHT22;13143;50.924;5.320;2023-05-07T11:35:49;19.60;99.90
25192;DHT22;13143;50.924;5.320;2023-05-07T11:38:19;19.60;99.90
25192;DHT22;13143;50.924;5.320;2023-05-07T11:40:59;19.60;99.90
25192;DHT22;13143;50.924;5.320;2023-05-07T11:43:36;19.60;99.90
25192;DHT22;13143;50.924;5.320;2023-05-07T11:46:10;19.60;99.90
25192;DHT22;13143;50.924;5.320;2023-05-07T11:48:42;19.60;99.90
25192;DHT22;13143;50.924;5.320;2023-05-07T11:51:09;19.60;99.90
25192;DHT22;13143;50.924;5.320;2023-05-07T11:53:58;19.60;99.90
25192;DHT22;13143;50.924;5.320;2023-05-07T11:56:34;19.60;99.90
25192;DHT22;13143;50.924;5.320;2023-05-07T11:59:06;19.60;99.90
25192;DHT22;13143;50.924;5.320;2023-05-07T12:01:45;19.60;99.90
25192;DHT22;13143;50.924;5.320;2023-05-07T12:04:30;19.60;99.90
25192;DHT22;13143;50.924;5.320;2023-05-07T12:06:56;19.60;99.90
25192;DHT22;13143;50.924;5.320;2023-05-07T12:09:32;19.60;99.90
25192;DHT22;13143;50.924;5.320;2023-05-07T12:12:04;19.60;99.90
25192;DHT22;13143;50.924;5.320;2023-05-07T12:14:31;19.60;99.90
25192;DHT22;13143;50.924;5.320;2023-05-07T12:17:02;19.60;99.90
25192;DHT22;13143;50.924;5.320;2023-05-07T12:19:31;19.60;99.90
25192;DHT22;13143;50.924;5.320;2023-05-07T12:22:00;19.60;99.90
25192;DHT22;13143;50.924;5.320;2023-05-07T12:24:27;19.60;99.90
25192;DHT22;13143;50.924;5.320;2023-05-07T12:26:53;19.60;99.90
25192;DHT22;13143;50.924;5.320;2023-05-07T12:29:23;19.60;99.90
25192;DHT22;13143;50.924;5.320;2023-05-07T12:31:50;19.60;99.90
25192;DHT22;13143;50.924;5.320;2023-05-07T12:34:16;19.60;99.90
25192;DHT22;13143;50.924;5.320;2023-05-07T12:36:50;19.60;99.90
25192;DHT22;13143;50.924;5.320;2023-05-07T12:39:17;19.60;99.90
25192;DHT22;13143;50.924;5.320;2023-05-07T12:44:22;19.60;99.90
25192;DHT22;13143;50.924;5.320;2023-05-07T12:46:52;19.60;99.90
25192;DHT22;13143;50.924;5.320;2023-05-07T12:49:24;19.60;99.90
25192;DHT22;13143;50.924;5.320;2023-05-07T12:51:51;19.60;99.90
25192;DHT22;13143;50.924;5.320;2023-05-07T12:54:35;19.60;99.90
25192;DHT22;13143;50.924;5.320;2023-05-07T12:57:03;19.60;99.90
25192;DHT22;13143;50.924;5.320;2023-05-07T12:59:40;19.60;99.90
25192;DHT22;13143;50.924;5.320;2023-05-07T13:02:07;19.60;99.90
25192;DHT22;13143;50.924;5.320;2023-05-07T13:04:34;19.60;99.90
25192;DHT22;13143;50.924;5.320;2023-05-07T13:07:01;19.60;99.90
25192;DHT22;13143;50.924;5.320;2023-05-07T13:09:31;19.60;99.90
25192;DHT22;13143;50.924;5.320;2023-05-07T13:11:58;19.60;99.90
25192;DHT22;13143;50.924;5.320;2023-05-07T13:14:31;19.60;99.90
25192;DHT22;13143;50.924;5.320;2023-05-07T13:17:01;19.60;99.90
25192;DHT22;13143;50.924;5.320;2023-05-07T13:19:30;19.60;99.90
25192;DHT22;13143;50.924;5.320;2023-05-07T13:21:59;19.60;99.90
25192;DHT22;13143;50.924;5.320;2023-05-07T13:24:25;19.60;99.90
25192;DHT22;13143;50.924;5.320;2023-05-07T13:26:52;19.60;99.90
25192;DHT22;13143;50.924;5.320;2023-05-07T13:29:18;19.60;99.90
25192;DHT22;13143;50.924;5.320;2023-05-07T13:31:44;19.60;99.90
25192;DHT22;13143;50.924;5.320;2023-05-07T13:34:11;19.70;99.90
25192;DHT22;13143;50.924;5.320;2023-05-07T13:36:39;19.60;99.90
25192;DHT22;13143;50.924;5.320;2023-05-07T13:39:07;19.70;99.90
25192;DHT22;13143;50.924;5.320;2023-05-07T13:41:37;19.70;99.90
25192;DHT22;13143;50.924;5.320;2023-05-07T13:44:03;19.70;99.90
25192;DHT22;13143;50.924;5.320;2023-05-07T13:46:32;19.70;99.90
25192;DHT22;13143;50.924;5.320;2023-05-07T13:48:58;19.70;99.90
25192;DHT22;13143;50.924;5.320;2023-05-07T13:51:25;19.70;99.90
25192;DHT22;13143;50.924;5.320;2023-05-07T13:53:55;19.70;99.90
25192;DHT22;13143;50.924;5.320;2023-05-07T13:56:30;19.70;99.90
25192;DHT22;13143;50.924;5.320;2023-05-07T13:59:00;19.70;99.90
25192;DHT22;13143;50.924;5.320;2023-05-07T14:01:38;19.70;99.90
25192;DHT22;13143;50.924;5.320;2023-05-07T14:04:11;19.70;99.90
25192;DHT22;13143;50.924;5.320;2023-05-07T14:06:43;19.70;99.90
25192;DHT22;13143;50.924;5.320;2023-05-07T14:09:13;19.70;99.90
25192;DHT22;13143;50.924;5.320;2023-05-07T14:11:58;19.70;99.90
25192;DHT22;13143;50.924;5.320;2023-05-07T14:14:24;19.70;99.90
25192;DHT22;13143;50.924;5.320;2023-05-07T14:16:50;19.70;99.90
25192;DHT22;13143;50.924;5.320;2023-05-07T14:19:17;19.70;99.90
25192;DHT22;13143;50.924;5.320;2023-05-07T14:21:44;19.70;99.90
25192;DHT22;13143;50.924;5.320;2023-05-07T14:24:10;19.70;99.90
25192;DHT22;13143;50.924;5.320;2023-05-07T14:26:37;19.80;99.90
25192;DHT22;13143;50.924;5.320;2023-05-07T14:29:06;19.70;99.90
25192;DHT22;13143;50.924;5.320;2023-05-07T14:31:36;19.80;99.90
25192;DHT22;13143;50.924;5.320;2023-05-07T14:34:14;19.80;99.90
25192;DHT22;13143;50.924;5.320;2023-05-07T14:36:49;19.80;99.90
25192;DHT22;13143;50.924;5.320;2023-05-07T14:39:18;19.80;99.90
25192;DHT22;13143;50.924;5.320;2023-05-07T14:41:44;19.80;99.90
25192;DHT22;13143;50.924;5.320;2023-05-07T14:44:11;19.80;99.90
25192;DHT22;13143;50.924;5.320;2023-05-07T14:46:37;19.80;99.90
25192;DHT22;13143;50.924;5.320;2023-05-07T14:49:03;19.80;99.90
25192;DHT22;13143;50.924;5.320;2023-05-07T14:51:30;19.80;99.90
25192;DHT22;13143;50.924;5.320;2023-05-07T14:53:56;19.80;99.90
25192;DHT22;13143;50.924;5.320;2023-05-07T14:56:23;19.80;99.90
25192;DHT22;13143;50.924;5.320;2023-05-07T14:58:53;19.80;99.90
25192;DHT22;13143;50.924;5.320;2023-05-07T15:01:20;19.80;99.90
25192;DHT22;13143;50.924;5.320;2023-05-07T15:03:46;19.80;99.90
25192;DHT22;13143;50.924;5.320;2023-05-07T15:06:12;19.80;99.90
25192;DHT22;13143;50.924;5.320;2023-05-07T15:08:39;19.80;99.90
25192;DHT22;13143;50.924;5.320;2023-05-07T15:11:05;19.80;99.90
25192;DHT22;13143;50.924;5.320;2023-05-07T15:13:31;19.80;99.90
25192;DHT22;13143;50.924;5.320;2023-05-07T15:15:58;19.80;99.90
25192;DHT22;13143;50.924;5.320;2023-05-07T15:18:27;19.80;99.90
25192;DHT22;13143;50.924;5.320;2023-05-07T15:20:55;19.80;99.90
25192;DHT22;13143;50.924;5.320;2023-05-07T15:23:22;19.80;99.90
25192;DHT22;13143;50.924;5.320;2023-05-07T15:25:52;19.80;99.90
25192;DHT22;13143;50.924;5.320;2023-05-07T15:28:18;19.80;99.90
25192;DHT22;13143;50.924;5.320;2023-05-07T15:30:45;19.80;99.90
25192;DHT22;13143;50.924;5.320;2023-05-07T15:33:11;19.80;99.90
25192;DHT22;13143;50.924;5.320;2023-05-07T15:35:38;19.90;99.90
25192;DHT22;13143;50.924;5.320;2023-05-07T15:38:07;19.90;99.90
25192;DHT22;13143;50.924;5.320;2023-05-07T15:40:37;19.90;99.90
25192;DHT22;13143;50.924;5.320;2023-05-07T15:43:11;19.80;99.90
25192;DHT22;13143;50.924;5.320;2023-05-07T15:45:41;19.90;99.90
25192;DHT22;13143;50.924;5.320;2023-05-07T15:48:19;19.90;99.90
25192;DHT22;13143;50.924;5.320;2023-05-07T15:50:49;19.90;99.90
25192;DHT22;13143;50.924;5.320;2023-05-07T15:53:15;19.90;99.90
25192;DHT22;13143;50.924;5.320;2023-05-07T15:55:41;19.90;99.90
25192;DHT22;13143;50.924;5.320;2023-05-07T15:58:09;19.90;99.90
25192;DHT22;13143;50.924;5.320;2023-05-07T16:00:35;19.90;99.90
25192;DHT22;13143;50.924;5.320;2023-05-07T16:03:08;19.90;99.90
25192;DHT22;13143;50.924;5.320;2023-05-07T16:05:52;19.90;99.90
25192;DHT22;13143;50.924;5.320;2023-05-07T16:08:23;19.90;99.90
25192;DHT22;13143;50.924;5.320;2023-05-07T16:10:49;19.90;99.90
25192;DHT22;13143;50.924;5.320;2023-05-07T16:13:19;19.90;99.90